createdAt,value
2023-05-10T00:00:05.680Z,12.90
2023-05-10T00:01:16.547Z,12.90
2023-05-10T00:02:19.225Z,12.90
2023-05-10T00:03:22.941Z,12.90
2023-05-10T00:04:28.324Z,12.90
2023-05-10T00:05:32.079Z,12.90
2023-05-10T00:06:34.695Z,12.90
2023-05-10T00:07:39.415Z,12.90
2023-05-10T00:08:41.859Z,12.90
2023-05-10T00:09:45.851Z,12.90
2023-05-10T00:10:48.564Z,12.90
2023-05-10T00:11:52.046Z,12.90
2023-05-10T00:12:54.741Z,12.80
2023-05-10T00:13:58.169Z,12.80
2023-05-10T00:15:00.857Z,12.80
2023-05-10T00:16:04.342Z,12.80
2023-05-10T00:17:06.971Z,12.80
2023-05-10T00:18:10.508Z,12.80
2023-05-10T00:19:16.097Z,12.80
2023-05-10T00:20:19.800Z,12.80
2023-05-10T00:21:22.642Z,12.80
2023-05-10T00:22:26.319Z,12.70
2023-05-10T00:23:30.070Z,12.70
2023-05-10T00:24:33.483Z,12.70
2023-05-10T00:25:36.093Z,12.70
2023-05-10T00:26:39.625Z,12.70
2023-05-10T00:27:42.360Z,12.70
2023-05-10T00:28:45.749Z,12.70
2023-05-10T00:29:48.333Z,12.70
2023-05-10T00:30:54.581Z,12.70
2023-05-10T00:31:57.421Z,12.70
2023-05-10T00:33:01.525Z,12.70
2023-05-10T00:34:03.916Z,12.70
2023-05-10T00:35:08.698Z,12.70
2023-05-10T00:36:11.149Z,12.70
2023-05-10T00:37:14.602Z,12.60
2023-05-10T00:38:16.955Z,12.60
2023-05-10T00:39:21.856Z,12.60
2023-05-10T00:40:24.422Z,12.60
2023-05-10T00:41:35.311Z,12.60
2023-05-10T00:42:38.575Z,12.60
2023-05-10T00:43:43.282Z,12.60
2023-05-10T00:44:45.781Z,12.60
2023-05-10T00:45:49.674Z,12.60
2023-05-10T00:46:52.458Z,12.60
2023-05-10T00:47:57.111Z,12.60
2023-05-10T00:49:02.630Z,12.50
2023-05-10T00:50:09.813Z,12.50
2023-05-10T00:51:12.276Z,12.50
2023-05-10T00:52:16.235Z,12.50
2023-05-10T00:53:18.966Z,12.50
2023-05-10T00:54:24.134Z,12.50
2023-05-10T00:55:27.330Z,12.50
2023-05-10T00:56:31.473Z,12.50
2023-05-10T00:57:34.180Z,12.50
2023-05-10T00:58:37.578Z,12.50
2023-05-10T00:59:40.823Z,12.50
2023-05-10T01:00:48.514Z,12.50
2023-05-10T01:01:52.575Z,12.50
2023-05-10T01:02:56.537Z,12.50
2023-05-10T01:04:00.076Z,12.50
2023-05-10T01:05:06.308Z,12.50
2023-05-10T01:06:10.895Z,12.50
2023-05-10T01:07:14.347Z,12.50
2023-05-10T01:08:17.101Z,12.50
2023-05-10T01:09:21.070Z,12.50
2023-05-10T01:10:24.971Z,12.50
2023-05-10T01:11:28.695Z,12.50
2023-05-10T01:12:32.725Z,12.50
2023-05-10T01:13:40.527Z,12.60
2023-05-10T01:14:43.056Z,12.60
2023-05-10T01:15:48.543Z,12.60
2023-05-10T01:16:54.300Z,12.60
2023-05-10T01:17:58.924Z,12.60
2023-05-10T01:19:01.591Z,12.60
2023-05-10T01:20:09.430Z,12.60
2023-05-10T01:21:24.841Z,12.60
2023-05-10T01:23:01.527Z,12.60
2023-05-10T01:25:10.171Z,12.60
2023-05-10T01:27:08.088Z,12.60
2023-05-10T01:28:50.925Z,12.60
2023-05-10T01:30:27.482Z,12.60
2023-05-10T01:32:15.221Z,12.60
2023-05-10T01:33:24.372Z,12.60
2023-05-10T01:34:36.625Z,12.60
2023-05-10T01:35:44.534Z,12.70
2023-05-10T01:36:57.183Z,12.60
2023-05-10T01:38:09.026Z,12.60
2023-05-10T01:39:23.093Z,12.60
2023-05-10T01:40:37.450Z,12.60
2023-05-10T01:41:48.376Z,12.60
2023-05-10T01:43:00.816Z,12.60
2023-05-10T01:44:20.044Z,12.60
2023-05-10T01:45:33.256Z,12.60
2023-05-10T01:46:38.811Z,12.70
2023-05-10T01:47:45.910Z,12.60
2023-05-10T01:48:55.375Z,12.60
2023-05-10T01:49:59.385Z,12.60
2023-05-10T01:51:01.753Z,12.60
2023-05-10T01:52:12.790Z,12.60
2023-05-10T01:53:21.617Z,12.60
2023-05-10T01:54:26.846Z,12.60
2023-05-10T01:55:34.683Z,12.60
2023-05-10T01:56:40.152Z,12.60
2023-05-10T01:57:47.340Z,12.60
2023-05-10T01:58:52.451Z,12.60
2023-05-10T01:59:55.996Z,12.60
2023-05-10T02:01:02.814Z,12.60
2023-05-10T02:02:07.161Z,12.60
2023-05-10T02:03:14.851Z,12.60
2023-05-10T02:04:24.947Z,12.60
2023-05-10T02:05:31.052Z,12.60
2023-05-10T02:06:34.557Z,12.60
2023-05-10T02:07:39.203Z,12.50
2023-05-10T02:08:44.335Z,12.60
2023-05-10T02:09:50.029Z,12.60
2023-05-10T02:10:57.202Z,12.50
2023-05-10T02:12:03.103Z,12.50
2023-05-10T02:13:08.922Z,12.50
2023-05-10T02:14:13.538Z,12.50
2023-05-10T02:15:22.304Z,12.50
2023-05-10T02:16:32.126Z,12.50
2023-05-10T02:17:38.681Z,12.60
2023-05-10T02:18:44.202Z,12.60
2023-05-10T02:19:49.529Z,12.50
2023-05-10T02:20:55.252Z,12.60
2023-05-10T02:21:58.362Z,12.60
2023-05-10T02:23:03.038Z,12.60
2023-05-10T02:24:09.721Z,12.60
2023-05-10T02:25:15.407Z,12.60
2023-05-10T02:26:20.232Z,12.60
2023-05-10T02:27:24.600Z,12.60
2023-05-10T02:28:30.171Z,12.50
2023-05-10T02:29:33.784Z,12.50
2023-05-10T02:30:39.675Z,12.60
2023-05-10T02:31:44.521Z,12.50
2023-05-10T02:32:49.276Z,12.50
2023-05-10T02:33:52.569Z,12.50
2023-05-10T02:34:58.160Z,12.50
2023-05-10T02:36:02.073Z,12.50
2023-05-10T02:37:08.106Z,12.50
2023-05-10T02:38:11.248Z,12.50
2023-05-10T02:39:16.595Z,12.50
2023-05-10T02:40:21.032Z,12.50
2023-05-10T02:41:27.398Z,12.50
2023-05-10T02:42:32.382Z,12.50
2023-05-10T02:43:37.371Z,12.50
2023-05-10T02:44:42.221Z,12.50
2023-05-10T02:45:49.213Z,12.50
2023-05-10T02:46:51.828Z,12.50
2023-05-10T02:47:55.426Z,12.50
2023-05-10T02:48:58.279Z,12.50
2023-05-10T02:50:05.402Z,12.50
2023-05-10T02:51:10.472Z,12.50
2023-05-10T02:52:28.515Z,12.50
2023-05-10T02:53:35.520Z,12.50
2023-05-10T02:54:45.326Z,12.50
2023-05-10T02:55:54.788Z,12.50
2023-05-10T02:57:00.652Z,12.50
2023-05-10T02:58:05.276Z,12.50
2023-05-10T02:59:07.660Z,12.50
2023-05-10T03:00:12.582Z,12.50
2023-05-10T03:01:15.255Z,12.50
2023-05-10T03:02:18.937Z,12.50
2023-05-10T03:03:22.124Z,12.50
2023-05-10T03:04:27.876Z,12.50
2023-05-10T03:05:34.256Z,12.50
2023-05-10T03:06:40.349Z,12.50
2023-05-10T03:07:46.559Z,12.50
2023-05-10T03:08:50.852Z,12.50
2023-05-10T03:09:53.867Z,12.50
2023-05-10T03:11:11.391Z,12.40
2023-05-10T03:12:28.117Z,12.40
2023-05-10T03:13:41.949Z,12.40
2023-05-10T03:14:57.981Z,12.40
2023-05-10T03:16:12.750Z,12.40
2023-05-10T03:17:24.015Z,12.40
2023-05-10T03:18:36.149Z,12.40
2023-05-10T03:19:48.873Z,12.40
2023-05-10T03:21:03.483Z,12.40
2023-05-10T03:22:11.960Z,12.40
2023-05-10T03:23:25.288Z,12.40
2023-05-10T03:24:29.872Z,12.40
2023-05-10T03:25:35.621Z,12.40
2023-05-10T03:26:41.351Z,12.40
2023-05-10T03:27:49.877Z,12.40
2023-05-10T03:28:53.496Z,12.40
2023-05-10T03:29:58.961Z,12.40
2023-05-10T03:31:03.686Z,12.40
2023-05-10T03:32:07.993Z,12.40
2023-05-10T03:33:10.523Z,12.40
2023-05-10T03:34:17.373Z,12.40
2023-05-10T03:35:19.833Z,12.40
2023-05-10T03:36:24.652Z,12.40
2023-05-10T03:37:27.518Z,12.40
2023-05-10T03:38:30.961Z,12.40
2023-05-10T03:39:33.659Z,12.40
2023-05-10T03:40:39.164Z,12.40
2023-05-10T03:41:42.515Z,12.40
2023-05-10T03:42:46.156Z,12.40
2023-05-10T03:43:48.589Z,12.40
2023-05-10T03:44:51.981Z,12.40
2023-05-10T03:45:54.887Z,12.40
2023-05-10T03:46:58.564Z,12.40
2023-05-10T03:48:01.414Z,12.40
2023-05-10T03:49:05.099Z,12.40
2023-05-10T03:50:09.142Z,12.40
2023-05-10T03:51:12.611Z,12.40
2023-05-10T03:52:17.425Z,12.40
2023-05-10T03:53:21.155Z,12.40
2023-05-10T03:54:24.746Z,12.40
2023-05-10T03:55:28.235Z,12.40
2023-05-10T03:56:31.066Z,12.40
2023-05-10T03:57:34.625Z,12.50
2023-05-10T03:58:39.743Z,12.40
2023-05-10T03:59:43.208Z,12.50
2023-05-10T04:00:46.541Z,12.40
2023-05-10T04:01:51.103Z,12.40
2023-05-10T04:02:53.522Z,12.50
2023-05-10T04:03:57.401Z,12.40
2023-05-10T04:04:59.983Z,12.50
2023-05-10T04:06:04.259Z,12.40
2023-05-10T04:07:06.689Z,12.50
2023-05-10T04:08:11.605Z,12.40
2023-05-10T04:09:14.655Z,12.50
2023-05-10T04:10:18.603Z,12.50
2023-05-10T04:11:22.968Z,12.50
2023-05-10T04:12:26.833Z,12.50
2023-05-10T04:13:29.601Z,12.50
2023-05-10T04:14:33.486Z,12.50
2023-05-10T04:15:36.616Z,12.50
2023-05-10T04:16:42.133Z,12.50
2023-05-10T04:17:44.545Z,12.50
2023-05-10T04:18:48.001Z,12.50
2023-05-10T04:19:50.483Z,12.50
2023-05-10T04:20:53.893Z,12.50
2023-05-10T04:21:56.279Z,12.50
2023-05-10T04:22:59.720Z,12.50
2023-05-10T04:24:04.097Z,12.50
2023-05-10T04:25:09.180Z,12.50
2023-05-10T04:26:11.858Z,12.50
2023-05-10T04:27:15.396Z,12.50
2023-05-10T04:28:17.795Z,12.50
2023-05-10T04:29:21.487Z,12.50
2023-05-10T04:30:23.957Z,12.50
2023-05-10T04:31:28.807Z,12.50
2023-05-10T04:32:31.906Z,12.50
2023-05-10T04:33:36.482Z,12.50
2023-05-10T04:34:39.013Z,12.50
2023-05-10T04:35:42.892Z,12.50
2023-05-10T04:36:45.466Z,12.50
2023-05-10T04:37:48.937Z,12.50
2023-05-10T04:38:51.414Z,12.50
2023-05-10T04:39:56.204Z,12.50
2023-05-10T04:41:06.551Z,12.50
2023-05-10T04:42:10.202Z,12.50
2023-05-10T04:43:12.662Z,12.50
2023-05-10T04:44:16.224Z,12.50
2023-05-10T04:45:18.828Z,12.50
2023-05-10T04:46:22.608Z,12.50
2023-05-10T04:47:25.180Z,12.50
2023-05-10T04:48:28.571Z,12.50
2023-05-10T04:49:31.102Z,12.50
2023-05-10T04:50:34.494Z,12.50
2023-05-10T04:51:36.987Z,12.60
2023-05-10T04:52:40.352Z,12.60
2023-05-10T04:53:46.446Z,12.60
2023-05-10T04:54:56.255Z,12.60
2023-05-10T04:55:58.752Z,12.60
2023-05-10T04:57:02.293Z,12.60
2023-05-10T04:58:04.681Z,12.60
2023-05-10T04:59:08.178Z,12.60
2023-05-10T05:00:12.139Z,12.60
2023-05-10T05:01:15.510Z,12.60
2023-05-10T05:02:18.012Z,12.60
2023-05-10T05:03:21.537Z,12.60
2023-05-10T05:04:25.070Z,12.60
2023-05-10T05:05:28.831Z,12.60
2023-05-10T05:06:31.268Z,12.60
2023-05-10T05:07:34.841Z,12.60
2023-05-10T05:08:37.371Z,12.60
2023-05-10T05:09:40.773Z,12.60
2023-05-10T05:10:44.710Z,12.60
2023-05-10T05:11:48.100Z,12.60
2023-05-10T05:12:51.248Z,12.60
2023-05-10T05:13:55.093Z,12.60
2023-05-10T05:14:57.839Z,12.60
2023-05-10T05:16:04.016Z,12.60
2023-05-10T05:17:06.453Z,12.60
2023-05-10T05:18:09.891Z,12.60
2023-05-10T05:19:12.649Z,12.60
2023-05-10T05:20:16.807Z,12.60
2023-05-10T05:21:20.926Z,12.60
2023-05-10T05:22:28.466Z,12.60
2023-05-10T05:23:31.157Z,12.60
2023-05-10T05:24:39.384Z,12.60
2023-05-10T05:25:42.984Z,12.50
2023-05-10T05:26:48.144Z,12.50
2023-05-10T05:27:50.579Z,12.50
2023-05-10T05:28:55.573Z,12.50
2023-05-10T05:29:58.729Z,12.60
2023-05-10T05:31:02.234Z,12.60
2023-05-10T05:32:06.387Z,12.60
2023-05-10T05:33:08.952Z,12.60
2023-05-10T05:34:13.210Z,12.60
2023-05-10T05:35:16.054Z,12.60
2023-05-10T05:36:19.767Z,12.60
2023-05-10T05:37:23.506Z,12.60
2023-05-10T05:38:27.192Z,12.60
2023-05-10T05:39:29.606Z,12.70
2023-05-10T05:40:32.885Z,12.70
2023-05-10T05:41:35.340Z,12.70
2023-05-10T05:42:40.300Z,12.70
2023-05-10T05:43:42.710Z,12.80
2023-05-10T05:44:46.350Z,12.80
2023-05-10T05:45:48.942Z,12.90
2023-05-10T05:46:52.408Z,12.90
2023-05-10T05:47:55.845Z,12.90
2023-05-10T05:48:58.441Z,13.00
2023-05-10T05:50:01.981Z,13.00
2023-05-10T05:51:07.098Z,13.00
2023-05-10T05:52:10.732Z,13.00
2023-05-10T05:53:13.094Z,13.10
2023-05-10T05:54:16.392Z,13.10
2023-05-10T05:55:19.394Z,13.10
2023-05-10T05:56:25.513Z,13.10
2023-05-10T05:57:28.296Z,13.10
2023-05-10T05:58:33.012Z,13.20
2023-05-10T05:59:35.478Z,13.20
2023-05-10T06:00:39.068Z,13.20
2023-05-10T06:01:42.532Z,13.20
2023-05-10T06:02:45.192Z,13.20
2023-05-10T06:03:51.027Z,13.20
2023-05-10T06:04:56.156Z,13.30
2023-05-10T06:05:58.581Z,13.20
2023-05-10T06:07:01.964Z,13.20
2023-05-10T06:08:04.922Z,13.20
2023-05-10T06:09:08.418Z,13.20
2023-05-10T06:10:11.479Z,13.20
2023-05-10T06:11:14.814Z,13.20
2023-05-10T06:12:17.236Z,13.20
2023-05-10T06:13:20.741Z,13.20
2023-05-10T06:14:24.640Z,13.20
2023-05-10T06:15:28.176Z,13.20
2023-05-10T06:16:30.561Z,13.20
2023-05-10T06:17:34.132Z,13.20
2023-05-10T06:18:37.007Z,13.20
2023-05-10T06:19:40.407Z,13.20
2023-05-10T06:20:44.653Z,13.20
2023-05-10T06:21:48.194Z,13.20
2023-05-10T06:22:50.531Z,13.30
2023-05-10T06:23:54.091Z,13.30
2023-05-10T06:24:57.472Z,13.40
2023-05-10T06:26:00.872Z,13.40
2023-05-10T06:27:05.159Z,13.50
2023-05-10T06:28:08.545Z,13.50
2023-05-10T06:29:11.873Z,13.60
2023-05-10T06:30:16.417Z,13.60
2023-05-10T06:31:19.794Z,13.70
2023-05-10T06:33:26.001Z,13.80
2023-05-10T06:34:28.375Z,13.90
2023-05-10T06:35:32.436Z,14.00
2023-05-10T06:36:34.895Z,14.00
2023-05-10T06:37:38.531Z,14.10
2023-05-10T06:39:44.746Z,14.20
2023-05-10T06:40:48.223Z,14.30
2023-05-10T06:41:51.760Z,14.40
2023-05-10T06:42:55.719Z,14.50
2023-05-10T06:43:59.341Z,14.60
2023-05-10T06:45:01.902Z,14.80
2023-05-10T06:47:10.516Z,15.00
2023-05-10T06:48:13.991Z,15.10
2023-05-10T06:50:24.308Z,15.30
2023-05-10T06:51:27.855Z,15.30
2023-05-10T06:52:30.478Z,15.40
2023-05-10T06:53:33.942Z,15.50
2023-05-10T06:54:36.310Z,15.50
2023-05-10T06:55:40.154Z,15.50
2023-05-10T06:56:42.640Z,15.50
2023-05-10T06:57:52.081Z,15.50
2023-05-10T06:58:55.905Z,15.40
2023-05-10T06:59:59.417Z,15.40
2023-05-10T07:01:08.004Z,15.40
2023-05-10T07:02:13.602Z,15.30
2023-05-10T07:03:17.200Z,15.30
2023-05-10T07:04:20.734Z,15.20
2023-05-10T07:05:25.731Z,15.20
2023-05-10T07:06:33.667Z,15.10
2023-05-10T07:07:40.370Z,15.00
2023-05-10T07:08:45.275Z,15.00
2023-05-10T07:09:47.877Z,15.00
2023-05-10T07:10:51.237Z,14.90
2023-05-10T07:11:54.746Z,14.90
2023-05-10T07:12:57.317Z,14.90
2023-05-10T07:14:00.835Z,14.90
2023-05-10T07:15:04.098Z,14.80
2023-05-10T07:16:09.456Z,14.80
2023-05-10T07:17:12.386Z,14.80
2023-05-10T07:18:15.838Z,14.70
2023-05-10T07:19:18.354Z,14.70
2023-05-10T07:20:23.147Z,14.60
2023-05-10T07:21:29.574Z,14.60
2023-05-10T07:22:32.327Z,14.60
2023-05-10T07:23:35.787Z,14.60
2023-05-10T07:24:38.336Z,14.50
2023-05-10T07:25:41.675Z,14.50
2023-05-10T07:26:44.124Z,14.50
2023-05-10T07:27:49.474Z,14.50
2023-05-10T07:28:51.982Z,14.50
2023-05-10T07:29:55.622Z,14.50
2023-05-10T07:30:58.414Z,14.50
2023-05-10T07:32:03.319Z,14.40
2023-05-10T07:33:05.768Z,14.50
2023-05-10T07:34:09.592Z,14.50
2023-05-10T07:35:13.076Z,14.50
2023-05-10T07:36:15.582Z,14.60
2023-05-10T07:37:19.528Z,14.60
2023-05-10T07:38:21.971Z,14.60
2023-05-10T07:39:27.721Z,14.60
2023-05-10T07:40:31.183Z,14.70
2023-05-10T07:41:39.619Z,14.70
2023-05-10T07:42:43.086Z,14.70
2023-05-10T07:43:45.521Z,14.70
2023-05-10T07:44:49.276Z,14.80
2023-05-10T07:45:53.322Z,14.80
2023-05-10T07:46:59.332Z,14.80
2023-05-10T07:48:03.408Z,14.80
2023-05-10T07:49:06.988Z,14.80
2023-05-10T07:50:10.077Z,14.80
2023-05-10T07:51:13.696Z,14.80
2023-05-10T07:52:17.602Z,14.80
2023-05-10T07:53:20.218Z,14.80
2023-05-10T07:54:23.713Z,14.80
2023-05-10T07:55:26.259Z,14.90
2023-05-10T07:56:32.747Z,14.90
2023-05-10T07:57:35.328Z,15.00
2023-05-10T07:58:38.794Z,15.00
2023-05-10T07:59:42.373Z,15.10
2023-05-10T08:00:44.811Z,15.10
2023-05-10T08:01:48.484Z,15.10
2023-05-10T08:02:51.000Z,15.20
2023-05-10T08:03:56.054Z,15.20
2023-05-10T08:04:58.649Z,15.20
2023-05-10T08:06:02.113Z,15.20
2023-05-10T08:07:07.579Z,15.20
2023-05-10T08:08:10.932Z,15.20
2023-05-10T08:09:14.565Z,15.20
2023-05-10T08:10:17.909Z,15.20
2023-05-10T08:11:22.231Z,15.20
2023-05-10T08:12:25.182Z,15.20
2023-05-10T08:13:28.701Z,15.20
2023-05-10T08:14:32.185Z,15.20
2023-05-10T08:15:35.675Z,15.20
2023-05-10T08:16:39.437Z,15.20
2023-05-10T08:17:42.032Z,15.20
2023-05-10T08:18:50.173Z,15.20
2023-05-10T08:19:55.119Z,15.20
2023-05-10T08:20:58.553Z,15.20
2023-05-10T08:22:01.946Z,15.10
2023-05-10T08:23:04.557Z,15.20
2023-05-10T08:24:08.798Z,15.20
2023-05-10T08:25:12.235Z,15.20
2023-05-10T08:26:14.803Z,15.20
2023-05-10T08:27:18.181Z,15.20
2023-05-10T08:28:20.634Z,15.20
2023-05-10T08:29:25.382Z,15.20
2023-05-10T08:30:30.247Z,15.20
2023-05-10T08:31:32.812Z,15.20
2023-05-10T08:32:38.957Z,15.10
2023-05-10T08:33:42.393Z,15.10
2023-05-10T08:34:48.150Z,15.10
2023-05-10T08:35:52.039Z,15.00
2023-05-10T08:36:55.453Z,15.00
2023-05-10T08:37:58.038Z,15.00
2023-05-10T08:39:01.636Z,15.00
2023-05-10T08:40:04.923Z,15.00
2023-05-10T08:41:08.605Z,15.00
2023-05-10T08:42:11.851Z,15.00
2023-05-10T08:43:16.777Z,15.00
2023-05-10T08:44:20.365Z,15.10
2023-05-10T08:45:26.833Z,15.10
2023-05-10T08:46:31.904Z,15.10
2023-05-10T08:47:39.241Z,15.20
2023-05-10T08:48:44.423Z,15.20
2023-05-10T08:50:59.993Z,15.50
2023-05-10T08:52:06.399Z,15.60
2023-05-10T08:53:14.295Z,15.70
2023-05-10T08:54:18.026Z,15.80
2023-05-10T08:55:20.798Z,15.90
2023-05-10T08:56:25.089Z,16.00
2023-05-10T08:57:28.810Z,16.10
2023-05-10T08:58:31.856Z,16.20
2023-05-10T08:59:35.479Z,16.20
2023-05-10T09:00:39.425Z,16.30
2023-05-10T09:01:43.614Z,16.30
2023-05-10T09:02:48.104Z,16.40
2023-05-10T09:03:52.845Z,16.40
2023-05-10T09:04:55.640Z,16.50
2023-05-10T09:06:00.995Z,16.50
2023-05-10T09:07:03.660Z,16.50
2023-05-10T09:08:08.188Z,16.50
2023-05-10T09:09:12.098Z,16.50
2023-05-10T09:10:16.661Z,16.40
2023-05-10T09:11:21.918Z,16.40
2023-05-10T09:12:25.797Z,16.40
2023-05-10T09:13:29.698Z,16.40
2023-05-10T09:14:36.017Z,16.30
2023-05-10T09:15:40.109Z,16.30
2023-05-10T09:16:43.593Z,16.30
2023-05-10T09:17:47.374Z,16.30
2023-05-10T09:18:51.489Z,16.20
2023-05-10T09:20:03.798Z,16.20
2023-05-10T09:21:09.245Z,16.20
2023-05-10T09:22:12.641Z,16.10
2023-05-10T09:23:16.121Z,16.10
2023-05-10T09:24:19.522Z,16.10
2023-05-10T09:25:22.778Z,16.00
2023-05-10T09:26:26.641Z,16.00
2023-05-10T09:27:29.089Z,16.00
2023-05-10T09:28:34.924Z,15.90
2023-05-10T09:29:46.295Z,15.90
2023-05-10T09:30:56.512Z,15.90
2023-05-10T09:32:00.207Z,15.90
2023-05-10T09:33:03.512Z,15.90
2023-05-10T09:34:07.020Z,15.80
2023-05-10T09:35:12.256Z,15.80
2023-05-10T09:36:17.256Z,15.80
2023-05-10T09:37:20.813Z,15.80
2023-05-10T09:38:24.293Z,15.80
2023-05-10T09:39:34.282Z,15.80
2023-05-10T09:40:37.900Z,15.80
2023-05-10T09:41:44.130Z,15.80
2023-05-10T09:42:55.982Z,15.80
2023-05-10T09:43:59.818Z,15.70
2023-05-10T09:45:06.216Z,15.70
2023-05-10T09:46:12.266Z,15.70
2023-05-10T09:47:20.291Z,15.70
2023-05-10T09:48:26.850Z,15.70
2023-05-10T09:49:30.965Z,15.70
2023-05-10T09:50:35.188Z,15.70
2023-05-10T09:51:39.233Z,15.70
2023-05-10T09:52:52.030Z,15.70
2023-05-10T09:54:12.653Z,15.70
2023-05-10T09:55:17.208Z,15.80
2023-05-10T09:56:36.523Z,15.80
2023-05-10T09:57:39.468Z,15.80
2023-05-10T09:58:43.016Z,15.80
2023-05-10T09:59:45.575Z,15.80
2023-05-10T10:00:52.407Z,15.80
2023-05-10T10:01:57.313Z,15.80
2023-05-10T10:03:02.309Z,15.80
2023-05-10T10:04:06.577Z,15.80
2023-05-10T10:05:10.916Z,15.80
2023-05-10T10:06:29.543Z,15.80
2023-05-10T10:07:36.315Z,15.80
2023-05-10T10:08:38.823Z,15.80
2023-05-10T10:09:42.346Z,15.90
2023-05-10T10:10:47.420Z,15.90
2023-05-10T10:11:50.112Z,15.90
2023-05-10T10:12:53.839Z,15.90
2023-05-10T10:13:56.793Z,15.90
2023-05-10T10:15:02.553Z,16.00
2023-05-10T10:16:05.959Z,16.00
2023-05-10T10:17:11.227Z,16.10
2023-05-10T10:18:16.595Z,16.20
2023-05-10T10:19:20.294Z,16.20
2023-05-10T10:20:26.142Z,16.30
2023-05-10T10:21:29.557Z,16.40
2023-05-10T10:22:34.370Z,16.50
2023-05-10T10:24:41.790Z,16.70
2023-05-10T10:25:46.096Z,16.80
2023-05-10T10:26:50.107Z,16.90
2023-05-10T10:28:12.195Z,17.00
2023-05-10T10:29:25.894Z,17.10
2023-05-10T10:30:39.088Z,17.20
2023-05-10T10:31:47.340Z,17.20
2023-05-10T10:33:28.416Z,17.30
2023-05-10T10:34:33.579Z,17.40
2023-05-10T10:35:37.402Z,17.40
2023-05-10T10:37:53.685Z,17.60
2023-05-10T10:39:01.211Z,17.60
2023-05-10T10:40:27.007Z,17.70
2023-05-10T10:41:33.878Z,17.80
2023-05-10T10:42:46.414Z,17.90
2023-05-10T10:43:49.869Z,17.90
2023-05-10T10:45:15.170Z,18.00
2023-05-10T10:46:19.345Z,18.00
2023-05-10T10:47:28.388Z,18.00
2023-05-10T10:48:30.676Z,18.00
2023-05-10T10:49:37.383Z,18.00
2023-05-10T10:50:47.460Z,18.00
2023-05-10T10:52:29.316Z,18.00
2023-05-10T10:53:34.979Z,18.00
2023-05-10T10:54:37.514Z,17.90
2023-05-10T10:55:49.759Z,17.90
2023-05-10T10:57:15.333Z,17.80
2023-05-10T10:58:33.199Z,17.70
2023-05-10T10:59:35.570Z,17.60
2023-05-10T11:00:41.883Z,17.60
2023-05-10T11:01:45.496Z,17.50
2023-05-10T11:02:50.854Z,17.40
2023-05-10T11:04:21.996Z,17.30
2023-05-10T11:05:44.595Z,17.30
2023-05-10T11:06:48.330Z,17.20
2023-05-10T11:07:54.950Z,17.20
2023-05-10T11:09:00.275Z,17.20
2023-05-10T11:10:06.617Z,17.20
2023-05-10T11:11:10.506Z,17.20
2023-05-10T11:12:13.006Z,17.30
2023-05-10T11:13:16.785Z,17.30
2023-05-10T11:14:23.019Z,17.40
2023-05-10T11:15:32.503Z,17.40
2023-05-10T11:17:53.108Z,17.70
2023-05-10T11:19:02.654Z,17.80
2023-05-10T11:20:09.846Z,18.00
2023-05-10T11:21:14.314Z,18.20
2023-05-10T11:22:18.984Z,18.40
2023-05-10T11:23:22.350Z,18.70
2023-05-10T11:24:30.540Z,19.00
2023-05-10T11:25:32.942Z,19.30
2023-05-10T11:26:38.287Z,19.60
2023-05-10T11:27:41.161Z,19.80
2023-05-10T11:28:45.454Z,20.10
2023-05-10T11:29:53.442Z,20.40
2023-05-10T11:30:56.960Z,20.60
2023-05-10T11:32:02.002Z,20.80
2023-05-10T11:33:04.723Z,21.00
2023-05-10T11:34:11.182Z,21.10
2023-05-10T11:35:16.357Z,21.20
2023-05-10T11:36:21.802Z,21.20
2023-05-10T11:37:24.364Z,21.30
2023-05-10T11:38:27.817Z,21.30
2023-05-10T11:39:34.603Z,21.30
2023-05-10T11:40:38.887Z,21.40
2023-05-10T11:41:43.049Z,21.30
2023-05-10T11:42:46.517Z,21.30
2023-05-10T11:43:55.177Z,21.20
2023-05-10T11:44:58.788Z,21.10
2023-05-10T11:46:02.413Z,21.00
2023-05-10T11:47:06.484Z,20.90
2023-05-10T11:48:10.395Z,20.70
2023-05-10T11:49:14.518Z,20.70
2023-05-10T11:50:18.534Z,20.50
2023-05-10T11:51:24.046Z,20.40
2023-05-10T11:52:27.415Z,20.30
2023-05-10T11:54:36.102Z,20.10
2023-05-10T11:55:39.703Z,20.00
2023-05-10T11:56:43.445Z,19.90
2023-05-10T11:57:46.936Z,19.80
2023-05-10T12:00:00.620Z,19.50
2023-05-10T12:01:06.074Z,19.40
2023-05-10T12:02:08.750Z,19.30
2023-05-10T12:03:12.687Z,19.10
2023-05-10T12:05:19.911Z,18.90
2023-05-10T12:06:23.195Z,18.70
2023-05-10T12:07:28.253Z,18.60
2023-05-10T12:09:43.781Z,18.30
2023-05-10T12:11:57.252Z,18.00
2023-05-10T12:12:59.656Z,17.80
2023-05-10T12:14:07.681Z,17.70
2023-05-10T12:15:14.955Z,17.50
2023-05-10T12:17:23.079Z,17.20
2023-05-10T12:18:27.239Z,17.10
2023-05-10T12:19:30.868Z,17.00
2023-05-10T12:20:33.394Z,16.90
2023-05-10T12:21:36.899Z,16.80
2023-05-10T12:22:39.204Z,16.70
2023-05-10T12:23:42.953Z,16.60
2023-05-10T12:24:47.155Z,16.50
2023-05-10T12:25:50.741Z,16.50
2023-05-10T12:26:53.257Z,16.40
2023-05-10T12:29:21.281Z,16.30
2023-05-10T12:30:25.349Z,16.20
2023-05-10T12:31:28.941Z,16.10
2023-05-10T12:32:41.895Z,16.10
2023-05-10T12:33:47.453Z,16.10
2023-05-10T12:34:49.919Z,16.00
2023-05-10T12:35:55.296Z,16.00
2023-05-10T12:36:58.305Z,16.00
2023-05-10T12:38:01.865Z,16.00
2023-05-10T12:39:05.937Z,16.00
2023-05-10T12:40:13.732Z,16.00
2023-05-10T12:41:19.481Z,16.00
2023-05-10T12:42:21.898Z,16.00
2023-05-10T12:43:25.546Z,16.10
2023-05-10T12:44:28.319Z,16.10
2023-05-10T12:45:31.951Z,16.10
2023-05-10T12:46:34.497Z,16.10
2023-05-10T12:47:38.623Z,16.20
2023-05-10T12:48:44.388Z,16.20
2023-05-10T12:49:47.126Z,16.20
2023-05-10T12:50:50.998Z,16.20
2023-05-10T12:51:53.612Z,16.30
2023-05-10T12:52:57.246Z,16.30
2023-05-10T12:53:59.641Z,16.30
2023-05-10T12:55:04.173Z,16.40
2023-05-10T12:56:09.002Z,16.40
2023-05-10T12:57:12.389Z,16.40
2023-05-10T12:58:31.428Z,16.40
2023-05-10T12:59:38.351Z,16.50
2023-05-10T13:00:42.130Z,16.50
2023-05-10T13:01:44.575Z,16.50
2023-05-10T13:02:48.122Z,16.50
2023-05-10T13:03:51.598Z,16.60
2023-05-10T13:04:55.697Z,16.60
2023-05-10T13:05:58.502Z,16.60
2023-05-10T13:07:01.894Z,16.60
2023-05-10T13:08:05.416Z,16.60
2023-05-10T13:09:08.081Z,16.60
2023-05-10T13:10:12.384Z,16.60
2023-05-10T13:11:17.974Z,16.60
2023-05-10T13:12:21.597Z,16.60
2023-05-10T13:13:23.936Z,16.60
2023-05-10T13:14:27.799Z,16.60
2023-05-10T13:15:31.288Z,16.60
2023-05-10T13:16:33.879Z,16.50
2023-05-10T13:17:39.925Z,16.50
2023-05-10T13:18:43.527Z,16.50
2023-05-10T13:19:46.927Z,16.40
2023-05-10T13:20:50.603Z,16.40
2023-05-10T13:21:53.953Z,16.40
2023-05-10T13:22:57.393Z,16.40
2023-05-10T13:24:01.218Z,16.30
2023-05-10T13:25:03.836Z,16.30
2023-05-10T13:26:07.146Z,16.30
2023-05-10T13:27:11.956Z,16.30
2023-05-10T13:28:14.487Z,16.30
2023-05-10T13:29:19.024Z,16.20
2023-05-10T13:30:22.664Z,16.20
2023-05-10T13:31:25.802Z,16.20
2023-05-10T13:32:29.225Z,16.20
2023-05-10T13:33:31.546Z,16.10
2023-05-10T13:34:36.682Z,16.10
2023-05-10T13:35:40.079Z,16.10
2023-05-10T13:36:42.480Z,16.10
2023-05-10T13:37:45.913Z,16.10
2023-05-10T13:38:48.254Z,16.00
2023-05-10T13:39:53.939Z,16.00
2023-05-10T13:40:57.332Z,16.10
2023-05-10T13:42:00.761Z,16.10
2023-05-10T13:43:05.833Z,16.10
2023-05-10T13:44:08.312Z,16.10
2023-05-10T13:45:13.363Z,16.10
2023-05-10T13:46:17.126Z,16.10
2023-05-10T13:47:22.641Z,16.10
2023-05-10T13:48:25.198Z,16.10
2023-05-10T13:49:29.712Z,16.20
2023-05-10T13:50:32.513Z,16.20
2023-05-10T13:51:36.634Z,16.20
2023-05-10T13:52:40.242Z,16.20
2023-05-10T13:53:42.590Z,16.20
2023-05-10T13:54:46.158Z,16.20
2023-05-10T13:55:49.270Z,16.30
2023-05-10T13:56:52.819Z,16.30
2023-05-10T13:57:55.125Z,16.30
2023-05-10T13:59:00.303Z,16.30
2023-05-10T14:00:04.065Z,16.30
2023-05-10T14:01:10.349Z,16.30
2023-05-10T14:02:14.240Z,16.30
2023-05-10T14:03:16.727Z,16.30
2023-05-10T14:04:20.198Z,16.30
2023-05-10T14:05:25.938Z,16.30
2023-05-10T14:06:29.934Z,16.30
2023-05-10T14:07:33.244Z,16.30
2023-05-10T14:08:36.583Z,16.30
2023-05-10T14:09:39.971Z,16.30
2023-05-10T14:10:42.404Z,16.30
2023-05-10T14:11:46.707Z,16.30
2023-05-10T14:12:53.052Z,16.30
2023-05-10T14:13:55.646Z,16.30
2023-05-10T14:15:00.464Z,16.20
2023-05-10T14:16:02.951Z,16.20
2023-05-10T14:17:06.526Z,16.20